Time;durP1;ratioP1;P1;durP2;ratioP2;P2;SDS_P1;SDS_P2;PMS_P1;PMS_P2;Temp;Humidity;BMP_temperature;BMP_pressure;BME280_temperature;BME280_humidity;BME280_pressure;Samples;Min_cycle;Max_cycle;Signal;HPM_P1;HPM_P2
2022/08/03 00:04:58;;;;;;;5.45;2.30;;;;;;;19.83;60.81;97048.47;10205730;29;20060;-61
2022/08/03 00:10:17;;;;;;;2.40;2.00;;;;;;;19.82;60.72;97040.69;10213035;29;20063;-60
2022/08/03 00:15:39;;;;;;;2.10;1.90;;;;;;;19.80;60.75;97046.41;10223708;29;20084;-60
2022/08/03 00:20:59;;;;;;;2.30;2.08;;;;;;;19.79;60.58;97038.63;10225212;29;20103;-59
2022/08/03 00:26:21;;;;;;;14.93;2.58;;;;;;;19.79;60.74;97038.63;10212505;29;20111;-61
2022/08/03 00:31:40;;;;;;;3.95;2.10;;;;;;;19.79;60.80;97035.91;10225162;29;20051;-60
2022/08/03 00:37:00;;;;;;;2.53;2.05;;;;;;;19.77;60.60;97038.94;10212389;29;20107;-60
2022/08/03 00:42:19;;;;;;;2.20;2.00;;;;;;;19.75;60.61;97033.84;10230100;28;20099;-61
2022/08/03 00:47:38;;;;;;;2.78;1.92;;;;;;;19.71;60.96;97032.06;10218958;29;20111;-60
2022/08/03 00:52:58;;;;;;;2.08;1.85;;;;;;;19.70;61.04;97034.00;10219583;29;20063;-61
2022/08/03 00:58:18;;;;;;;2.40;1.95;;;;;;;19.67;61.06;97031.13;10219213;29;20051;-60
2022/08/03 01:03:38;;;;;;;4.75;2.20;;;;;;;19.66;61.21;97034.91;10219096;29;20060;-60
2022/08/03 01:09:21;;;;;;;2.15;1.95;;;;;;;19.62;61.40;97033.97;10218970;29;20126;-60
2022/08/03 01:14:49;;;;;;;1.92;1.77;;;;;;;19.60;61.44;97036.19;10203721;29;20397;-61
2022/08/03 01:20:10;;;;;;;2.63;2.00;;;;;;;19.56;61.60;97044.97;10218651;29;20127;-60
2022/08/03 01:25:58;;;;;;;3.58;2.00;;;;;;;19.52;61.47;97041.31;10204149;29;20054;-61
2022/08/03 01:31:22;;;;;;;4.70;1.95;;;;;;;19.50;61.46;97038.13;10211196;29;20424;-61
2022/08/03 01:36:51;;;;;;;3.05;1.70;;;;;;;19.50;61.59;97031.91;10203662;29;20059;-60
2022/08/03 01:42:12;;;;;;;2.30;2.10;;;;;;;19.48;61.45;97029.53;10205504;29;20060;-60
2022/08/03 01:47:32;;;;;;;2.35;1.95;;;;;;;19.46;61.41;97033.66;10207591;29;20408;-59
2022/08/03 01:52:53;;;;;;;2.47;2.28;;;;;;;19.45;61.48;97030.16;10201029;29;20067;-61
2022/08/03 01:58:15;;;;;;;3.75;1.98;;;;;;;19.45;61.56;97027.47;10228023;29;20423;-61
2022/08/03 02:03:40;;;;;;;3.50;2.30;;;;;;;19.42;61.63;97030.78;10202859;29;20059;-61
2022/08/03 02:09:01;;;;;;;2.30;2.10;;;;;;;19.40;61.76;97033.03;10202967;29;20067;-60
2022/08/03 02:14:21;;;;;;;2.05;1.77;;;;;;;19.36;61.73;97018.56;10216717;29;20056;-61
2022/08/03 02:19:41;;;;;;;2.88;1.95;;;;;;;19.34;61.67;97018.88;10215944;29;20397;-61
2022/08/03 02:25:01;;;;;;;2.40;2.20;;;;;;;19.33;61.73;97021.91;10216263;29;20063;-60
2022/08/03 02:30:21;;;;;;;2.55;2.35;;;;;;;19.30;61.74;97019.81;10201022;29;20519;-61
2022/08/03 02:35:41;;;;;;;2.40;2.05;;;;;;;19.28;61.85;97022.06;10215950;29;20131;-60
2022/08/03 02:41:04;;;;;;;2.40;1.92;;;;;;;19.26;61.95;97022.38;10215245;29;20111;-60
2022/08/03 02:46:28;;;;;;;2.38;2.17;;;;;;;19.26;61.85;97016.19;10215251;29;20066;-61
2022/08/03 02:51:48;;;;;;;2.00;1.88;;;;;;;19.22;61.82;97023.31;10200869;29;20059;-60
2022/08/03 02:57:08;;;;;;;2.30;2.10;;;;;;;19.17;61.98;97027.78;10213278;29;20056;-61
2022/08/03 03:02:28;;;;;;;2.17;1.98;;;;;;;19.16;61.93;97020.75;10200285;29;20412;-60
2022/08/03 03:07:48;;;;;;;2.20;1.85;;;;;;;19.15;62.00;97026.47;10214530;29;20059;-61
2022/08/03 03:13:08;;;;;;;2.60;1.95;;;;;;;19.12;61.99;97024.41;10203637;29;20130;-61
2022/08/03 03:18:30;;;;;;;3.33;2.05;;;;;;;19.10;61.87;97030.13;10213763;29;20082;-61
2022/08/03 03:23:50;;;;;;;3.33;2.00;;;;;;;19.06;61.94;97022.97;10199785;29;20056;-61
2022/08/03 03:29:10;;;;;;;2.42;2.22;;;;;;;19.03;61.98;97032.50;10198885;29;20055;-61
2022/08/03 03:34:30;;;;;;;2.45;2.20;;;;;;;19.03;62.06;97032.50;10213491;29;20056;-60
2022/08/03 03:39:49;;;;;;;4.68;2.30;;;;;;;19.01;62.06;97032.00;10213467;29;20059;-60
2022/08/03 03:45:09;;;;;;;4.03;2.33;;;;;;;19.01;62.01;97037.41;10213354;29;20063;-59
2022/08/03 03:50:30;;;;;;;3.08;2.30;;;;;;;18.98;62.12;97043.47;10201363;28;20051;-61
2022/08/03 03:55:51;;;;;;;3.30;2.15;;;;;;;18.95;62.16;97033.28;10225693;28;20055;-61
2022/08/03 04:01:11;;;;;;;4.18;2.10;;;;;;;18.93;62.36;97040.91;10223084;28;20504;-61
2022/08/03 04:12:09;;;;;;;3.33;1.93;;;;;;;18.93;62.61;97043.59;10212715;29;20056;-61
2022/08/03 04:17:29;;;;;;;3.13;1.88;;;;;;;18.94;62.68;97047.91;10218102;29;20059;-60
2022/08/03 04:22:50;;;;;;;5.72;2.05;;;;;;;18.96;63.02;97048.38;10217125;29;20126;-61
2022/08/03 04:28:10;;;;;;;3.22;2.17;;;;;;;19.05;62.95;97053.78;10220199;29;20047;-59
2022/08/03 04:33:31;;;;;;;2.30;2.10;;;;;;;19.18;62.61;97055.56;10218838;28;20047;-59
2022/08/03 04:38:59;;;;;;;2.92;2.17;;;;;;;19.30;62.17;97061.13;10206139;29;20530;-59
2022/08/03 04:44:20;;;;;;;3.28;1.90;;;;;;;19.32;62.03;97056.22;10220040;29;20056;-59
2022/08/03 04:49:40;;;;;;;2.20;2.00;;;;;;;19.35;62.00;97062.91;10205127;29;20056;-58
2022/08/03 04:55:00;;;;;;;1.90;1.80;;;;;;;19.38;62.05;97066.88;10218733;29;20078;-59
2022/08/03 05:00:19;;;;;;;7.18;2.30;;;;;;;19.37;62.74;97079.59;10219482;29;20393;-60
2022/08/03 05:05:39;;;;;;;4.43;2.40;;;;;;;19.32;62.93;97075.13;10219191;29;20131;-59
2022/08/03 05:10:58;;;;;;;3.83;2.50;;;;;;;19.33;63.40;97075.94;10218875;29;20512;-59
2022/08/03 05:16:18;;;;;;;2.60;2.40;;;;;;;19.35;63.01;97079.13;10224757;29;20512;-59
2022/08/03 05:21:38;;;;;;;3.70;2.40;;;;;;;19.39;62.91;97082.00;10218454;29;20068;-59
2022/08/03 05:26:57;;;;;;;6.85;2.42;;;;;;;19.42;62.76;97089.44;10217399;29;20068;-58
2022/08/03 05:32:17;;;;;;;8.82;3.13;;;;;;;19.43;62.89;97081.03;10223431;29;20071;-58
2022/08/03 05:37:36;;;;;;;7.95;3.17;;;;;;;19.44;62.95;97085.31;10218000;29;20055;-59
2022/08/03 05:42:56;;;;;;;4.85;2.83;;;;;;;19.46;63.08;97083.09;10202961;29;20063;-59
2022/08/03 05:48:15;;;;;;;6.55;2.95;;;;;;;19.46;63.18;97085.78;10217254;29;20056;-59
2022/08/03 05:53:35;;;;;;;6.18;3.17;;;;;;;19.47;63.10;97081.97;10216624;29;20523;-58
2022/08/03 05:58:54;;;;;;;5.22;3.20;;;;;;;19.48;62.92;97094.41;10216809;29;20063;-59
2022/08/03 06:04:13;;;;;;;5.53;3.28;;;;;;;19.49;62.97;97093.28;10216828;29;20068;-58
2022/08/03 06:09:33;;;;;;;4.50;2.95;;;;;;;19.49;62.96;97087.88;10215973;29;20492;-58
2022/08/03 06:14:52;;;;;;;5.03;2.83;;;;;;;19.50;62.92;97081.38;10205912;29;20055;-58
2022/08/03 06:20:12;;;;;;;5.35;2.88;;;;;;;19.50;63.04;97083.25;10216459;29;20416;-59
2022/08/03 06:25:31;;;;;;;4.82;2.90;;;;;;;19.50;63.02;97078.66;10224788;29;20496;-59
2022/08/03 06:30:51;;;;;;;6.05;3.10;;;;;;;19.51;62.99;97088.34;10238033;28;20056;-59
2022/08/03 06:36:11;;;;;;;5.15;2.80;;;;;;;19.52;63.04;97087.25;10215592;29;20097;-59
2022/08/03 06:41:30;;;;;;;5.25;2.63;;;;;;;19.53;63.17;97094.22;10214771;29;20090;-59
2022/08/03 06:46:50;;;;;;;4.82;2.92;;;;;;;19.53;63.06;97102.34;10214577;29;20115;-59
2022/08/03 06:52:09;;;;;;;5.03;3.05;;;;;;;19.53;63.10;97106.94;10203750;29;20092;-59
2022/08/03 06:57:29;;;;;;;4.43;2.85;;;;;;;19.54;63.16;97103.94;10227478;28;20063;-59
2022/08/03 07:02:48;;;;;;;3.97;2.72;;;;;;;19.54;63.14;97103.94;10203922;29;20442;-58
2022/08/03 07:08:07;;;;;;;4.07;2.80;;;;;;;19.55;63.23;97099.31;10214679;29;20062;-59
2022/08/03 07:13:27;;;;;;;3.60;2.83;;;;;;;19.56;63.15;97106.31;10227030;28;20059;-59
2022/08/03 07:18:46;;;;;;;2.97;2.63;;;;;;;19.55;63.24;97104.72;10216937;28;20107;-59
2022/08/03 07:24:06;;;;;;;4.55;2.88;;;;;;;19.57;63.19;97105.19;10213181;29;20080;-59
2022/08/03 07:29:26;;;;;;;3.53;2.78;;;;;;;19.57;63.14;97110.59;10213333;29;20067;-60
2022/08/03 07:34:45;;;;;;;5.78;2.58;;;;;;;19.59;63.35;97110.28;10225357;29;20060;-59
2022/08/03 07:40:05;;;;;;;3.97;2.80;;;;;;;19.58;63.32;97109.47;10213929;29;20060;-59
2022/08/03 07:45:25;;;;;;;5.07;3.15;;;;;;;19.58;63.26;97112.19;10213160;29;20430;-59
2022/08/03 07:50:45;;;;;;;4.05;2.50;;;;;;;19.60;63.26;97111.88;10212402;29;20542;-59
2022/08/03 07:56:04;;;;;;;3.40;2.67;;;;;;;19.59;63.32;97115.69;10225455;28;20397;-59
2022/08/03 08:01:24;;;;;;;3.42;2.60;;;;;;;19.59;63.52;97113.00;10213132;29;20059;-59
2022/08/03 08:06:43;;;;;;;5.13;2.58;;;;;;;19.59;63.42;97113.78;10225322;29;20059;-59
2022/08/03 08:12:03;;;;;;;4.00;2.75;;;;;;;19.60;63.33;97114.56;10210685;29;20056;-59
2022/08/03 08:17:22;;;;;;;4.30;2.70;;;;;;;19.60;63.38;97110.00;10211616;29;20087;-59
2022/08/03 08:22:43;;;;;;;3.20;2.60;;;;;;;19.61;63.50;97108.84;10211148;29;20062;-59
2022/08/03 08:28:03;;;;;;;3.67;2.50;;;;;;;19.63;63.48;97113.94;10212310;29;20063;-59
2022/08/03 08:33:22;;;;;;;3.78;2.38;;;;;;;19.62;63.52;97102.34;10223773;29;20067;-59
2022/08/03 08:38:43;;;;;;;2.83;2.40;;;;;;;19.64;63.73;97113.66;10212172;29;20079;-59
2022/08/03 08:44:03;;;;;;;4.45;2.60;;;;;;;19.64;63.59;97113.66;10211549;29;20062;-58
2022/08/03 08:49:26;;;;;;;2.53;2.33;;;;;;;19.64;63.67;97108.25;10211817;29;20071;-59
2022/08/03 08:54:46;;;;;;;12.82;4.15;;;;;;;19.65;63.90;97103.63;10204534;29;20056;-60
2022/08/03 09:00:12;;;;;;;8.40;3.85;;;;;;;19.67;63.84;97106.81;10196977;29;20051;-59
2022/08/03 09:05:31;;;;;;;9.18;3.38;;;;;;;19.66;64.10;97097.91;10232176;28;20052;-59
2022/08/03 09:10:51;;;;;;;7.13;3.17;;;;;;;19.68;64.30;97098.38;10220007;28;20056;-59
2022/08/03 09:16:16;;;;;;;5.22;2.70;;;;;;;19.70;64.54;97098.84;10219840;29;20067;-59
2022/08/03 09:21:35;;;;;;;9.02;8.13;;;;;;;19.74;65.27;97102.53;10231493;28;20451;-59
2022/08/03 09:26:55;;;;;;;8.20;7.15;;;;;;;19.75;65.72;97100.63;10218515;29;20055;-60
2022/08/03 09:32:14;;;;;;;7.18;5.78;;;;;;;19.78;66.05;97108.13;10229783;29;20067;-58
2022/08/03 09:37:34;;;;;;;5.85;5.28;;;;;;;19.78;66.24;97102.72;10217971;29;20060;-59
2022/08/03 09:42:56;;;;;;;6.03;5.15;;;;;;;19.80;66.28;97099.66;10217480;29;20059;-60
2022/08/03 09:48:30;;;;;;;5.25;4.50;;;;;;;19.83;66.52;97099.03;10191688;29;20110;-59
2022/08/03 09:53:49;;;;;;;4.40;3.90;;;;;;;19.85;66.51;97094.09;10229977;29;20056;-59
2022/08/03 09:59:22;;;;;;;4.60;4.10;;;;;;;19.87;66.47;97094.59;10216961;29;20056;-60
2022/08/03 10:04:51;;;;;;;4.03;3.47;;;;;;;19.87;66.73;97089.19;10207578;29;20084;-59
2022/08/03 10:10:11;;;;;;;5.00;3.05;;;;;;;19.86;66.63;97093.78;10215349;29;20052;-59
2022/08/03 10:15:30;;;;;;;3.90;3.08;;;;;;;19.84;66.57;97082.50;10214694;29;20059;-59
2022/08/03 10:21:00;;;;;;;2.70;2.50;;;;;;;19.83;66.16;97093.63;10214384;29;20055;-58
2022/08/03 10:26:20;;;;;;;2.92;2.45;;;;;;;19.81;65.89;97082.34;10214405;29;20055;-59
2022/08/03 10:31:43;;;;;;;2.70;2.47;;;;;;;19.81;65.64;97077.72;10224286;29;20503;-59
2022/08/03 10:37:08;;;;;;;3.33;2.25;;;;;;;19.81;65.42;97076.94;10199620;29;20048;-59
2022/08/03 10:42:30;;;;;;;2.67;2.47;;;;;;;19.82;65.23;97073.13;10213590;29;20063;-59
2022/08/03 10:47:50;;;;;;;2.97;2.47;;;;;;;19.81;65.22;97064.22;10211615;28;20047;-59
2022/08/03 10:53:10;;;;;;;3.47;2.42;;;;;;;19.82;65.13;97057.69;10199054;29;20069;-59
2022/08/03 10:58:35;;;;;;;3.10;2.35;;;;;;;19.82;65.08;97060.41;10212989;29;20060;-60
2022/08/03 11:03:54;;;;;;;2.78;2.25;;;;;;;19.82;65.05;97059.63;10212246;29;20060;-60
2022/08/03 11:09:16;;;;;;;2.67;2.47;;;;;;;19.82;65.00;97063.09;10206382;29;20103;-60
2022/08/03 11:14:46;;;;;;;2.40;2.20;;;;;;;19.82;64.97;97054.22;10212793;29;20107;-59
2022/08/03 11:20:47;;;;;;;5.13;2.90;;;;;;;19.83;64.94;97050.38;10661411;27;20127;-59
2022/08/03 11:26:16;;;;;;;2.90;2.28;;;;;;;19.84;64.88;97058.16;10632721;27;20047;-59
2022/08/03 11:31:35;;;;;;;4.30;2.60;;;;;;;19.85;64.88;97053.56;10646068;27;20058;-59
2022/08/03 11:37:21;;;;;;;6.38;3.15;;;;;;;19.86;64.86;97053.25;10644998;27;20042;-59
2022/08/03 11:42:43;;;;;;;5.05;2.80;;;;;;;19.89;64.82;97049.88;10641524;27;20074;-67
2022/08/03 11:48:15;;;;;;;5.65;2.83;;;;;;;19.92;64.87;97046.56;10654455;27;20100;-59
2022/08/03 11:53:34;;;;;;;4.45;2.72;;;;;;;19.91;64.92;97042.25;10631443;27;20555;-59
2022/08/03 11:58:57;;;;;;;5.15;2.88;;;;;;;19.91;64.77;97042.25;10632556;27;20054;-59
2022/08/03 12:04:17;;;;;;;9.82;3.22;;;;;;;19.93;64.90;97044.63;10659042;27;20383;-59
2022/08/03 12:09:40;;;;;;;15.68;3.58;;;;;;;19.92;65.05;97032.25;10654000;27;20418;-58
2022/08/03 12:14:59;;;;;;;14.45;3.53;;;;;;;19.93;65.13;97031.94;10620594;27;20498;-60
2022/08/03 12:20:22;;;;;;;10.35;3.80;;;;;;;19.93;65.23;97020.28;10645624;27;20406;-60
2022/08/03 12:25:43;;;;;;;5.30;3.00;;;;;;;19.92;65.20;97022.22;10649148;27;20100;-59
2022/08/03 12:31:05;;;;;;;4.82;3.10;;;;;;;19.93;65.06;97023.00;10613453;27;20058;-60
2022/08/03 12:36:25;;;;;;;6.72;2.55;;;;;;;19.93;65.07;97023.81;10614829;27;20047;-59
2022/08/03 12:41:45;;;;;;;6.07;2.72;;;;;;;19.94;65.08;97021.91;10613666;27;20440;-59
2022/08/03 12:47:05;;;;;;;5.38;2.60;;;;;;;19.93;64.94;97020.28;10606586;27;20039;-59
2022/08/03 12:52:26;;;;;;;5.75;2.53;;;;;;;19.94;64.97;97019.97;10599574;27;20047;-59
2022/08/03 12:57:45;;;;;;;5.93;2.90;;;;;;;19.94;64.91;97006.47;10607001;27;20059;-59
2022/08/03 13:03:06;;;;;;;6.35;2.80;;;;;;;19.95;65.03;97004.53;10625371;27;20096;-59
2022/08/03 13:08:25;;;;;;;5.32;2.70;;;;;;;19.96;64.98;97000.75;10614005;27;20100;-59
2022/08/03 13:13:45;;;;;;;4.22;2.25;;;;;;;19.95;65.03;96996.44;10597285;27;20052;-59
2022/08/03 13:19:05;;;;;;;5.38;2.53;;;;;;;19.96;64.97;96998.03;10614125;27;20051;-59
2022/08/03 13:24:24;;;;;;;3.78;2.13;;;;;;;19.96;64.97;97003.44;10613372;27;20058;-59
2022/08/03 13:29:44;;;;;;;5.45;2.40;;;;;;;19.97;65.01;97002.31;10610713;27;20107;-59
2022/08/03 13:35:04;;;;;;;2.50;1.98;;;;;;;19.97;64.97;96998.81;10627133;27;20046;-59
2022/08/03 13:40:23;;;;;;;3.38;2.05;;;;;;;19.97;64.97;96994.19;10611635;27;20047;-59
2022/08/03 13:45:43;;;;;;;3.83;2.10;;;;;;;19.98;64.97;96992.31;10625132;27;20058;-59
2022/08/03 13:51:02;;;;;;;3.75;1.88;;;;;;;19.98;64.80;96984.19;10612789;27;20058;-59
2022/08/03 13:56:22;;;;;;;2.47;1.60;;;;;;;19.99;64.73;96988.47;10598771;27;20122;-59
2022/08/03 14:01:41;;;;;;;2.33;1.70;;;;;;;19.99;64.71;96980.38;10625011;27;20051;-59
2022/08/03 14:07:00;;;;;;;3.58;1.75;;;;;;;19.99;64.57;96980.38;10637514;27;20039;-60
2022/08/03 14:12:20;;;;;;;2.10;1.73;;;;;;;20.01;64.59;96975.44;10637549;27;20487;-59
2022/08/03 14:17:39;;;;;;;2.45;1.63;;;;;;;20.00;64.46;96971.94;10623192;27;20070;-60
2022/08/03 14:22:59;;;;;;;2.50;2.00;;;;;;;20.01;64.43;96968.09;10624282;27;20047;-60
2022/08/03 14:28:21;;;;;;;3.88;2.00;;;;;;;20.01;64.38;96970.81;10622523;27;20055;-60
2022/08/03 14:33:40;;;;;;;3.03;1.50;;;;;;;20.03;64.24;96968.59;10582827;27;20055;-58
2022/08/03 14:39:00;;;;;;;3.05;1.40;;;;;;;-146.19;100.00;65364.44;10601631;27;20043;-59
2022/08/03 14:44:19;;;;;;;2.00;1.42;;;;;;;-146.19;100.00;65364.44;10603657;27;20058;-57
2022/08/03 14:49:38;;;;;;;3.17;1.50;;;;;;;20.03;64.24;96968.59;10596118;27;20124;-58
2022/08/03 14:54:59;;;;;;;3.28;1.63;;;;;;;20.05;62.83;96957.44;10588161;27;20100;-59
2022/08/03 15:00:18;;;;;;;3.65;1.60;;;;;;;20.05;62.96;96949.31;10604421;27;20047;-59
2022/08/03 15:05:38;;;;;;;3.42;1.67;;;;;;;20.07;63.04;96952.50;10610234;27;20048;-61
2022/08/03 15:10:58;;;;;;;2.35;1.60;;;;;;;20.07;63.11;96938.97;10611585;27;20047;-60
2022/08/03 15:16:17;;;;;;;5.32;1.58;;;;;;;20.10;63.31;96938.34;10622514;28;20055;-61
2022/08/03 15:21:36;;;;;;;12.88;1.90;;;;;;;20.13;63.16;96934.97;10622155;28;20119;-59
2022/08/03 15:26:55;;;;;;;12.98;1.88;;;;;;;20.15;63.27;96941.66;10622585;28;20043;-59
2022/08/03 15:32:15;;;;;;;10.45;1.98;;;;;;;20.17;63.46;96935.13;10614339;27;20088;-60
2022/08/03 15:37:35;;;;;;;16.20;2.33;;;;;;;20.18;63.51;96932.09;10615910;28;20047;-59
2022/08/03 15:42:54;;;;;;;15.90;3.00;;;;;;;20.19;63.69;96924.75;10606550;28;20380;-60
2022/08/03 15:48:13;;;;;;;19.23;3.35;;;;;;;20.18;63.80;96929.38;10593590;27;20047;-60
2022/08/03 15:53:32;;;;;;;22.80;3.50;;;;;;;20.18;64.08;96929.38;10620846;27;20040;-60
2022/08/03 15:58:52;;;;;;;25.27;4.07;;;;;;;20.17;64.20;96921.59;10616845;27;20096;-60
2022/08/03 16:04:11;;;;;;;23.63;4.45;;;;;;;20.17;64.36;96930.53;10624594;27;20059;-60
2022/08/03 16:09:31;;;;;;;20.67;3.78;;;;;;;20.18;64.43;96929.38;10618061;27;20043;-59
2022/08/03 16:14:50;;;;;;;22.67;3.75;;;;;;;20.19;64.47;96917.47;10628321;27;20051;-59
2022/08/03 16:20:11;;;;;;;27.52;3.40;;;;;;;20.19;64.58;96912.06;10627832;27;20047;-58
2022/08/03 16:25:31;;;;;;;19.33;3.20;;;;;;;20.20;64.41;96907.44;10615209;27;20051;-58
2022/08/03 16:30:50;;;;;;;20.77;3.17;;;;;;;20.14;62.28;96901.41;10637146;27;20548;-58
2022/08/03 16:36:10;;;;;;;12.00;2.50;;;;;;;20.07;61.29;96899.22;10623531;27;20047;-58
2022/08/03 16:41:29;;;;;;;14.77;2.72;;;;;;;20.07;61.84;96907.34;10601215;27;20169;-58
2022/08/03 16:46:49;;;;;;;17.65;3.40;;;;;;;20.10;61.93;96903.19;10617266;27;20047;-59
2022/08/03 16:52:09;;;;;;;12.63;2.83;;;;;;;20.14;62.22;96907.59;10633002;27;20044;-58
2022/08/03 16:57:28;;;;;;;11.80;2.67;;;;;;;20.14;62.43;96907.59;10610947;27;20047;-59
2022/08/03 17:02:51;;;;;;;11.80;2.50;;;;;;;20.17;62.90;96914.28;10601332;27;20708;-59
2022/08/03 17:08:11;;;;;;;9.95;2.42;;;;;;;20.19;63.20;96920.19;10612763;27;20039;-59
2022/08/03 17:13:30;;;;;;;11.65;2.45;;;;;;;20.19;63.42;96914.75;10626295;27;20047;-59
2022/08/03 17:18:59;;;;;;;11.63;2.75;;;;;;;20.21;63.74;96925.22;10624887;27;20059;-58
2022/08/03 17:24:21;;;;;;;10.55;2.63;;;;;;;20.21;63.83;96936.88;10623426;27;20088;-58
2022/08/03 17:29:45;;;;;;;11.25;2.45;;;;;;;20.21;64.08;96925.22;10637390;27;20050;-58
2022/08/03 17:35:06;;;;;;;13.02;2.90;;;;;;;20.22;64.22;96924.91;10597978;27;20065;-58
2022/08/03 17:40:26;;;;;;;8.57;2.35;;;;;;;20.22;64.39;96927.63;10588157;27;20046;-59
2022/08/03 17:45:45;;;;;;;8.70;2.40;;;;;;;20.24;64.58;96933.50;10624221;27;20058;-58
2022/08/03 17:51:38;;;;;;;6.50;2.47;;;;;;;20.26;64.75;96944.00;10625188;27;20047;-58
2022/08/03 17:57:28;;;;;;;2.92;2.17;;;;;;;20.24;64.79;96928.09;10582994;27;20487;-57
2022/08/03 18:03:19;;;;;;;4.40;2.15;;;;;;;20.25;64.84;96926.97;10582874;27;20128;-57
2022/08/03 18:09:04;;;;;;;4.35;2.20;;;;;;;20.26;65.01;96935.88;10566006;27;20047;-56
2022/08/03 18:14:47;;;;;;;4.70;2.08;;;;;;;20.25;64.88;96932.41;10572825;27;20050;-60
2022/08/03 18:20:07;;;;;;;2.72;2.20;;;;;;;20.25;64.87;96931.59;10557893;27;20059;-61
2022/08/03 18:25:28;;;;;;;2.88;2.00;;;;;;;20.26;64.79;96944.78;10579833;28;20051;-62
2022/08/03 18:30:47;;;;;;;3.25;1.90;;;;;;;20.25;64.81;96940.50;10547290;28;20056;-58
2022/08/03 18:36:07;;;;;;;2.10;1.90;;;;;;;20.25;64.68;96935.09;10578936;28;20050;-57
2022/08/03 18:41:28;;;;;;;4.10;1.98;;;;;;;20.26;64.67;96936.66;10578881;28;20056;-57
2022/08/03 18:47:13;;;;;;;4.55;2.22;;;;;;;20.25;64.30;96932.41;10582840;28;20039;-56
2022/08/03 18:52:46;;;;;;;6.07;2.15;;;;;;;20.26;64.00;96949.41;10579284;28;20055;-57
2022/08/03 18:58:24;;;;;;;3.78;2.00;;;;;;;20.25;64.09;96945.13;10568354;28;20055;-57
2022/08/03 19:03:49;;;;;;;4.53;2.05;;;;;;;20.24;63.95;96951.66;10560446;28;20102;-56
2022/08/03 19:09:33;;;;;;;2.20;1.98;;;;;;;20.24;63.87;96951.66;10562579;28;20047;-56
2022/08/03 19:15:00;;;;;;;2.97;2.17;;;;;;;20.24;63.67;96954.34;10552944;28;20047;-56
2022/08/03 19:20:30;;;;;;;3.40;2.30;;;;;;;20.24;63.79;96952.44;10574630;28;20093;-58
2022/08/03 19:25:51;;;;;;;2.63;2.30;;;;;;;20.24;63.79;96955.13;10553408;28;20055;-61
2022/08/03 19:31:12;;;;;;;5.72;2.45;;;;;;;20.23;63.80;96952.75;10571496;28;20051;-60
2022/08/03 19:36:33;;;;;;;3.08;2.45;;;;;;;20.22;63.88;96957.38;10577999;28;20051;-58
2022/08/03 19:41:57;;;;;;;2.85;2.40;;;;;;;20.23;64.15;96956.28;10569919;28;20403;-57
2022/08/03 19:47:26;;;;;;;2.85;2.50;;;;;;;20.24;64.44;96957.06;10580660;28;20051;-56
2022/08/03 19:52:48;;;;;;;4.18;2.47;;;;;;;20.23;64.73;96953.56;10586856;28;20048;-56
2022/08/03 19:58:09;;;;;;;4.68;2.97;;;;;;;20.23;65.33;96956.28;10585745;28;20093;-56
2022/08/03 20:03:29;;;;;;;3.03;2.78;;;;;;;20.23;65.73;96945.44;10568666;28;20044;-57
2022/08/03 20:08:49;;;;;;;3.85;3.15;;;;;;;20.23;65.75;96955.47;10585856;28;20044;-56
2022/08/03 20:14:09;;;;;;;5.22;3.00;;;;;;;20.22;65.48;96949.25;10570463;28;20074;-54
2022/08/03 20:19:29;;;;;;;4.95;3.28;;;;;;;20.20;65.22;96946.09;10619871;27;20059;-56
2022/08/03 20:24:49;;;;;;;3.42;3.10;;;;;;;20.19;64.98;96946.41;10626669;27;20490;-57
2022/08/03 20:30:10;;;;;;;3.97;3.60;;;;;;;20.19;64.94;96952.63;10625843;27;20398;-56
2022/08/03 20:35:30;;;;;;;4.03;3.72;;;;;;;20.21;64.79;96961.22;10637987;27;20039;-58
2022/08/03 20:40:49;;;;;;;6.07;3.75;;;;;;;20.21;64.68;96957.69;10639042;27;20391;-57
2022/08/03 20:46:09;;;;;;;3.70;3.35;;;;;;;20.21;64.53;96952.28;10612902;27;20039;-57
2022/08/03 20:51:28;;;;;;;5.32;3.63;;;;;;;20.22;64.39;96948.47;10582809;27;20062;-58
2022/08/03 20:56:48;;;;;;;3.58;3.28;;;;;;;20.22;64.34;96948.47;10592396;27;20059;-58
2022/08/03 21:02:08;;;;;;;3.80;3.50;;;;;;;20.20;64.46;96948.78;10627375;27;20055;-58
2022/08/03 21:07:29;;;;;;;5.40;3.38;;;;;;;20.21;64.37;96947.69;10625141;27;20506;-59
2022/08/03 21:12:53;;;;;;;4.25;3.90;;;;;;;20.20;64.38;96948.00;10608889;27;20055;-58
2022/08/03 21:18:13;;;;;;;3.75;3.33;;;;;;;20.21;64.40;96952.28;10631294;27;20108;-58
2022/08/03 21:23:36;;;;;;;4.13;3.70;;;;;;;20.20;64.42;96959.63;10607783;27;20055;-58
2022/08/03 21:28:55;;;;;;;3.92;3.30;;;;;;;20.20;64.29;96951.50;10628507;27;20042;-58
2022/08/03 21:34:16;;;;;;;3.90;3.58;;;;;;;20.21;64.40;96958.50;10625638;27;20043;-59
2022/08/03 21:39:35;;;;;;;6.53;4.13;;;;;;;20.21;64.25;96950.41;10625504;27;20047;-58
2022/08/03 21:44:55;;;;;;;4.68;4.28;;;;;;;20.21;64.30;96950.41;10611908;27;20379;-58
2022/08/03 21:50:14;;;;;;;4.80;4.38;;;;;;;20.21;64.29;96941.47;10611569;27;20047;-58
2022/08/03 21:55:37;;;;;;;4.32;3.92;;;;;;;20.20;64.24;96940.69;10621823;27;20046;-58
2022/08/03 22:00:58;;;;;;;3.88;3.53;;;;;;;20.22;64.25;96943.06;10611428;27;20120;-58
2022/08/03 22:06:17;;;;;;;4.63;3.95;;;;;;;20.21;64.15;96952.28;10637282;27;20380;-59
2022/08/03 22:11:37;;;;;;;3.90;3.60;;;;;;;20.20;64.16;96946.09;10636588;27;20046;-58
2022/08/03 22:16:57;;;;;;;3.92;3.40;;;;;;;20.19;64.02;96949.13;10622987;27;20063;-58
2022/08/03 22:22:18;;;;;;;3.70;3.40;;;;;;;20.19;64.01;96943.69;10623327;27;20047;-58
2022/08/03 22:27:39;;;;;;;4.18;3.78;;;;;;;20.18;64.04;96942.91;10622000;27;20051;-57
2022/08/03 22:33:01;;;;;;;4.25;3.75;;;;;;;20.19;63.97;96947.22;10602032;27;20075;-57
2022/08/03 22:38:20;;;;;;;4.63;3.60;;;;;;;20.19;63.88;96949.94;10607184;27;20096;-58
2022/08/03 22:43:40;;;;;;;3.67;3.38;;;;;;;20.18;63.87;96944.84;10608296;27;20054;-58
2022/08/03 22:49:00;;;;;;;4.53;3.30;;;;;;;20.18;63.52;96942.91;10613934;27;20100;-59
2022/08/03 22:54:19;;;;;;;3.22;3.03;;;;;;;20.18;63.43;96952.94;10607415;27;20047;-58
2022/08/03 22:59:39;;;;;;;2.92;2.72;;;;;;;20.16;63.21;96942.44;10608012;27;20047;-58
2022/08/03 23:05:03;;;;;;;3.17;2.97;;;;;;;20.16;63.00;96945.16;10581182;27;20044;-58
2022/08/03 23:10:23;;;;;;;3.13;2.83;;;;;;;20.15;63.01;96943.59;10589421;27;20103;-58
2022/08/03 23:15:54;;;;;;;3.53;2.80;;;;;;;20.15;63.02;96954.41;10604775;27;20063;-59
2022/08/03 23:21:14;;;;;;;4.10;2.60;;;;;;;20.15;62.97;96952.47;10543082;28;20090;-58
2022/08/03 23:26:35;;;;;;;3.00;2.70;;;;;;;20.15;62.90;96966.00;10553290;28;20040;-58
2022/08/03 23:31:55;;;;;;;2.58;2.42;;;;;;;20.15;63.23;96954.41;10555038;28;20052;-58
2022/08/03 23:37:15;;;;;;;2.97;2.78;;;;;;;20.13;63.16;96967.44;10578643;28;20048;-58
2022/08/03 23:42:35;;;;;;;4.38;3.20;;;;;;;20.13;63.36;96967.44;10569840;28;20056;-58
2022/08/03 23:47:55;;;;;;;4.13;3.03;;;;;;;20.12;63.46;96963.16;10575819;28;20043;-58
2022/08/03 23:53:42;;;;;;;3.22;2.92;;;;;;;20.12;63.62;96963.16;10567463;28;20044;-57
2022/08/03 23:59:12;;;;;;;3.65;3.25;;;;;;;20.10;63.70;96957.28;10578086;28;20172;-58
